Time;durP1;ratioP1;P1;durP2;ratioP2;P2;SDS_P1;SDS_P2;PMS_P1;PMS_P2;Temp;Humidity;BMP_temperature;BMP_pressure;BME280_temperature;BME280_humidity;BME280_pressure;Samples;Min_cycle;Max_cycle;Signal;HPM_P1;HPM_P2
2022/05/15 00:01:53;;;;;;;34.22;8.50;;;10.90;99.90;;;;;;4986855;28;20050;-69
2022/05/15 00:04:19;;;;;;;26.55;7.60;;;10.90;99.90;;;;;;4980753;28;20066;-69
2022/05/15 00:06:45;;;;;;;29.52;8.45;;;10.90;99.90;;;;;;4981000;28;20104;-68
2022/05/15 00:09:11;;;;;;;37.15;9.63;;;11.00;99.90;;;;;;4999448;28;20509;-69
2022/05/15 00:11:36;;;;;;;32.55;8.15;;;10.90;99.90;;;;;;4990215;28;20042;-69
2022/05/15 00:14:02;;;;;;;39.08;8.20;;;10.90;99.90;;;;;;4991845;28;20115;-69
2022/05/15 00:16:31;;;;;;;34.05;8.80;;;10.90;99.90;;;;;;4986898;28;20034;-69
2022/05/15 00:18:57;;;;;;;38.53;9.00;;;10.90;99.90;;;;;;4990509;28;20431;-69
2022/05/15 00:21:23;;;;;;;33.42;8.95;;;10.80;99.90;;;;;;4987704;28;20046;-69
2022/05/15 00:23:49;;;;;;;34.22;9.65;;;11.00;99.90;;;;;;4995087;28;20042;-68
2022/05/15 00:26:15;;;;;;;31.65;9.45;;;10.80;99.90;;;;;;4988732;28;20567;-69
2022/05/15 00:28:40;;;;;;;37.95;10.43;;;10.80;99.90;;;;;;4987516;28;20042;-68
2022/05/15 00:31:06;;;;;;;32.15;9.35;;;10.80;99.90;;;;;;4986521;28;20129;-68
2022/05/15 00:33:32;;;;;;;36.45;10.88;;;10.70;99.90;;;;;;4985876;28;20049;-68
2022/05/15 00:35:58;;;;;;;41.15;11.50;;;10.90;99.90;;;;;;4984301;28;20548;-68
2022/05/15 00:38:24;;;;;;;37.95;11.73;;;10.70;99.90;;;;;;4989312;28;20035;-68
2022/05/15 00:40:50;;;;;;;28.48;10.77;;;10.60;99.90;;;;;;5006109;28;20089;-68
2022/05/15 00:43:44;;;;;;;35.80;10.10;;;10.70;99.90;;;;;;4989247;28;20046;-68
2022/05/15 00:46:14;;;;;;;31.42;10.13;;;10.60;99.90;;;;;;4993084;28;20047;-69
2022/05/15 00:48:41;;;;;;;39.97;11.60;;;10.60;99.90;;;;;;4996715;28;20056;-69
2022/05/15 00:51:21;;;;;;;33.17;10.50;;;10.60;99.90;;;;;;4992073;28;20102;-68
2022/05/15 00:53:50;;;;;;;35.70;10.88;;;10.70;99.90;;;;;;5000255;28;20488;-69
2022/05/15 00:56:18;;;;;;;35.63;11.60;;;10.60;99.90;;;;;;4989369;28;20412;-68
2022/05/15 00:58:51;;;;;;;33.55;10.75;;;10.60;99.90;;;;;;4990215;28;20081;-68
2022/05/15 01:01:18;;;;;;;34.90;10.40;;;10.60;99.90;;;;;;4988642;28;20165;-69
2022/05/15 01:03:45;;;;;;;38.42;10.35;;;10.50;99.90;;;;;;4991811;28;20488;-69
2022/05/15 01:06:10;;;;;;;33.90;10.50;;;10.40;99.90;;;;;;4985573;28;20097;-70
2022/05/15 01:08:36;;;;;;;32.25;10.25;;;10.50;99.90;;;;;;4973950;28;20458;-68
2022/05/15 01:11:10;;;;;;;42.58;11.00;;;10.50;99.90;;;;;;4996133;28;20035;-68
2022/05/15 01:13:38;;;;;;;36.28;10.40;;;10.50;99.90;;;;;;4988622;28;20050;-68
2022/05/15 01:16:05;;;;;;;36.75;9.88;;;10.40;99.90;;;;;;4994686;28;20125;-69
2022/05/15 01:18:33;;;;;;;35.88;10.18;;;10.40;99.90;;;;;;4995247;28;20081;-68
2022/05/15 01:21:17;;;;;;;39.00;11.77;;;10.40;99.90;;;;;;4994659;28;20070;-67
2022/05/15 01:23:43;;;;;;;32.78;10.00;;;10.40;99.90;;;;;;4998380;28;20038;-69
2022/05/15 01:26:08;;;;;;;39.70;10.20;;;10.40;99.90;;;;;;4993896;28;20044;-69
2022/05/15 01:28:34;;;;;;;27.33;9.27;;;10.30;99.90;;;;;;4993064;28;20047;-68
2022/05/15 01:31:00;;;;;;;32.25;9.88;;;10.60;99.90;;;;;;4988491;28;20043;-69
2022/05/15 01:33:25;;;;;;;41.40;10.60;;;10.30;99.90;;;;;;4989486;28;20034;-69
2022/05/15 01:35:51;;;;;;;38.70;10.10;;;10.20;99.90;;;;;;4997638;28;20099;-68
2022/05/15 01:38:18;;;;;;;34.78;10.23;;;10.20;99.90;;;;;;4996368;28;20042;-68
2022/05/15 01:40:48;;;;;;;30.00;9.18;;;10.20;99.90;;;;;;4988328;28;20157;-68
2022/05/15 01:43:14;;;;;;;33.83;8.63;;;10.20;99.90;;;;;;4996565;28;20061;-68
2022/05/15 01:45:40;;;;;;;32.97;8.75;;;10.20;99.90;;;;;;4996086;28;20042;-69
2022/05/15 01:48:06;;;;;;;34.30;8.88;;;10.10;99.90;;;;;;4994632;28;20499;-68
2022/05/15 01:50:32;;;;;;;36.95;9.32;;;10.10;99.90;;;;;;4991637;28;20058;-69
2022/05/15 01:52:58;;;;;;;37.38;9.65;;;10.10;99.90;;;;;;4993431;28;20498;-69
2022/05/15 01:55:24;;;;;;;32.22;9.18;;;10.10;99.90;;;;;;4987542;28;20117;-69
2022/05/15 01:57:49;;;;;;;26.92;8.73;;;10.00;99.90;;;;;;4994244;28;20042;-68
2022/05/15 02:00:19;;;;;;;28.95;8.35;;;10.00;99.90;;;;;;4990362;28;20039;-68
2022/05/15 02:02:47;;;;;;;46.30;10.43;;;10.00;99.90;;;;;;4989097;28;20535;-68
2022/05/15 02:05:12;;;;;;;36.90;9.38;;;10.00;99.90;;;;;;4991728;28;20388;-69
2022/05/15 02:07:38;;;;;;;28.25;7.35;;;9.90;99.90;;;;;;4994086;28;20038;-68
2022/05/15 02:10:05;;;;;;;26.67;8.55;;;9.90;99.90;;;;;;4998900;28;20046;-69
2022/05/15 02:12:31;;;;;;;29.23;7.68;;;9.90;99.90;;;;;;4997169;28;20133;-69
2022/05/15 02:14:57;;;;;;;25.75;8.02;;;10.00;99.90;;;;;;4987053;28;20178;-69
2022/05/15 02:17:23;;;;;;;27.30;8.70;;;9.80;99.90;;;;;;5003688;28;20046;-68
2022/05/15 02:19:49;;;;;;;33.60;8.30;;;9.80;99.90;;;;;;4990680;28;20049;-68
2022/05/15 02:22:15;;;;;;;31.40;7.82;;;9.80;99.90;;;;;;4991002;28;20046;-68
2022/05/15 02:24:41;;;;;;;27.40;8.30;;;9.80;99.90;;;;;;4991936;28;20082;-69
2022/05/15 02:27:07;;;;;;;39.72;8.68;;;9.80;99.90;;;;;;4991371;28;20050;-68
2022/05/15 02:29:33;;;;;;;35.47;8.73;;;9.80;99.90;;;;;;4990451;28;20481;-68
2022/05/15 02:31:59;;;;;;;31.00;8.18;;;9.80;99.90;;;;;;4988435;28;20038;-68
2022/05/15 02:34:24;;;;;;;38.85;9.20;;;9.90;99.90;;;;;;4991829;28;20042;-68
2022/05/15 02:36:50;;;;;;;32.67;8.85;;;9.70;99.90;;;;;;4993397;28;20475;-68
2022/05/15 02:39:16;;;;;;;30.05;7.80;;;9.80;99.90;;;;;;4987196;28;20034;-68
2022/05/15 02:41:41;;;;;;;22.65;7.85;;;9.70;99.90;;;;;;4986838;28;20042;-69
2022/05/15 02:44:07;;;;;;;24.60;8.52;;;9.70;99.90;;;;;;4984504;28;20052;-69
2022/05/15 02:46:33;;;;;;;35.08;8.90;;;9.70;99.90;;;;;;4989583;28;20043;-69
2022/05/15 02:51:53;;;;;;;33.15;8.07;;;9.70;99.90;;;;;;5007784;28;20325;-69
2022/05/15 02:54:19;;;;;;;32.53;8.20;;;9.60;99.90;;;;;;4992966;28;20038;-68
2022/05/15 02:56:45;;;;;;;26.65;7.18;;;9.60;99.90;;;;;;4994105;28;20038;-68
2022/05/15 02:59:11;;;;;;;35.00;9.35;;;9.60;99.90;;;;;;4984605;28;20070;-68
2022/05/15 03:01:37;;;;;;;33.45;8.38;;;9.60;99.90;;;;;;4982787;28;20516;-69
2022/05/15 03:04:03;;;;;;;28.17;8.05;;;10.60;99.90;;;;;;4992887;28;20053;-69
2022/05/15 03:06:29;;;;;;;33.33;7.97;;;9.60;99.90;;;;;;4989651;28;20042;-68
2022/05/15 03:08:55;;;;;;;28.80;8.93;;;9.50;99.90;;;;;;4992910;28;20112;-67
2022/05/15 03:11:21;;;;;;;37.03;8.63;;;9.50;99.90;;;;;;4983051;28;20054;-70
2022/05/15 03:13:49;;;;;;;33.03;7.57;;;9.50;99.90;;;;;;4993034;28;20180;-68
2022/05/15 03:16:18;;;;;;;33.72;8.68;;;9.50;99.90;;;;;;4990492;28;20038;-68
2022/05/15 03:18:47;;;;;;;34.67;8.77;;;9.40;99.90;;;;;;4980445;28;20046;-68
2022/05/15 03:21:28;;;;;;;29.42;7.82;;;9.40;99.90;;;;;;4986205;28;20085;-68
2022/05/15 03:24:06;;;;;;;36.45;9.35;;;9.40;99.90;;;;;;5007546;28;20412;-69
2022/05/15 03:26:35;;;;;;;31.75;8.35;;;9.40;99.90;;;;;;4992370;28;20470;-68
2022/05/15 03:29:01;;;;;;;37.47;9.13;;;9.40;99.90;;;;;;4989459;28;20039;-68
2022/05/15 03:31:27;;;;;;;28.35;8.50;;;9.50;99.90;;;;;;4984409;28;20129;-68
2022/05/15 03:33:53;;;;;;;35.25;9.18;;;9.40;99.90;;;;;;4978368;28;20138;-69
2022/05/15 03:36:18;;;;;;;29.10;8.98;;;9.40;99.90;;;;;;4981339;28;20070;-68
2022/05/15 03:38:46;;;;;;;30.40;8.15;;;9.40;99.90;;;;;;4992908;28;20124;-68
2022/05/15 03:41:13;;;;;;;40.70;9.10;;;9.50;99.90;;;;;;4995267;28;20091;-69
2022/05/15 03:43:39;;;;;;;34.75;8.93;;;9.40;99.90;;;;;;4987968;28;20051;-69
2022/05/15 03:46:06;;;;;;;33.78;9.38;;;9.40;99.90;;;;;;4981760;28;20050;-68
2022/05/15 03:48:32;;;;;;;30.65;7.10;;;9.40;99.90;;;;;;5000503;28;20121;-68
2022/05/15 03:50:59;;;;;;;31.27;8.32;;;9.40;99.90;;;;;;4992342;28;20395;-68
2022/05/15 03:53:26;;;;;;;30.40;8.05;;;9.40;99.90;;;;;;4991758;28;20050;-69
2022/05/15 03:55:55;;;;;;;33.85;7.90;;;9.40;99.90;;;;;;4988070;28;20125;-68
2022/05/15 03:58:22;;;;;;;35.53;8.98;;;9.40;99.90;;;;;;4974462;28;20042;-69
2022/05/15 04:00:48;;;;;;;37.37;8.43;;;9.40;99.90;;;;;;4983322;28;20046;-69
2022/05/15 04:03:14;;;;;;;30.58;9.60;;;9.50;99.90;;;;;;4988275;28;20050;-69
2022/05/15 04:05:39;;;;;;;26.08;7.90;;;9.50;99.90;;;;;;4992539;28;20062;-69
2022/05/15 04:08:05;;;;;;;30.83;7.53;;;9.60;99.90;;;;;;4989155;28;20038;-69
2022/05/15 04:10:31;;;;;;;31.92;9.05;;;9.50;99.90;;;;;;4984649;28;20101;-69
2022/05/15 04:12:57;;;;;;;39.63;9.07;;;9.50;99.90;;;;;;4992982;28;20046;-68
2022/05/15 04:15:22;;;;;;;30.42;8.93;;;9.50;99.90;;;;;;4990630;28;20050;-68
2022/05/15 04:17:50;;;;;;;28.92;8.48;;;9.50;99.90;;;;;;4991281;28;20043;-69
2022/05/15 04:20:20;;;;;;;26.65;8.43;;;9.50;99.90;;;;;;4983786;28;20052;-70
2022/05/15 04:22:46;;;;;;;31.65;7.72;;;9.50;99.90;;;;;;4985472;28;20117;-69
2022/05/15 04:25:12;;;;;;;35.78;9.07;;;9.50;99.90;;;;;;4991071;28;20556;-68
2022/05/15 04:27:38;;;;;;;32.67;8.65;;;9.60;99.90;;;;;;4989710;28;20117;-69
2022/05/15 04:30:05;;;;;;;34.55;8.38;;;9.60;99.90;;;;;;4983457;28;20155;-69
2022/05/15 04:32:31;;;;;;;33.85;9.43;;;9.60;99.90;;;;;;4985426;28;20128;-68
2022/05/15 04:34:56;;;;;;;30.95;8.55;;;9.70;99.90;;;;;;4988583;28;20050;-68
2022/05/15 04:37:22;;;;;;;30.08;8.35;;;9.70;99.90;;;;;;4980852;28;20047;-69
2022/05/15 04:39:48;;;;;;;33.85;8.80;;;9.70;99.90;;;;;;4990707;28;20038;-69
2022/05/15 04:42:14;;;;;;;33.05;8.48;;;9.70;99.90;;;;;;4979541;28;20050;-69
2022/05/15 04:44:39;;;;;;;31.90;8.07;;;9.80;99.90;;;;;;4989441;28;20200;-69
2022/05/15 04:47:05;;;;;;;29.52;8.23;;;9.80;99.90;;;;;;4984032;28;20049;-69
2022/05/15 04:49:31;;;;;;;32.58;8.75;;;9.80;99.90;;;;;;4985933;28;20046;-68
2022/05/15 04:51:57;;;;;;;36.20;8.40;;;9.90;99.90;;;;;;4986536;28;20520;-68
2022/05/15 04:54:23;;;;;;;33.20;8.25;;;9.90;99.90;;;;;;4985694;28;20050;-69
2022/05/15 04:56:48;;;;;;;33.17;9.32;;;9.90;99.90;;;;;;4986335;28;20096;-68
2022/05/15 04:59:14;;;;;;;33.30;8.73;;;10.00;99.90;;;;;;4989776;28;20425;-69
2022/05/15 05:01:41;;;;;;;30.05;8.00;;;10.00;99.90;;;;;;4986169;28;20082;-69
2022/05/15 05:04:06;;;;;;;29.77;7.70;;;10.10;99.90;;;;;;4990204;28;20050;-69
2022/05/15 05:06:32;;;;;;;32.58;8.10;;;10.10;99.90;;;;;;4990075;28;20042;-68
2022/05/15 05:09:00;;;;;;;27.45;7.85;;;10.20;99.90;;;;;;4979826;28;20046;-68
2022/05/15 05:11:26;;;;;;;32.47;8.65;;;10.30;99.90;;;;;;4976796;28;20089;-69
2022/05/15 05:13:52;;;;;;;34.55;7.75;;;10.40;99.90;;;;;;4992039;28;20050;-69
2022/05/15 05:16:18;;;;;;;35.22;8.93;;;10.40;99.90;;;;;;4988489;28;20392;-69
2022/05/15 05:18:43;;;;;;;38.95;9.45;;;10.50;99.90;;;;;;4984347;28;20042;-68
2022/05/15 05:21:09;;;;;;;29.77;7.90;;;10.60;99.90;;;;;;4989020;28;20057;-69
2022/05/15 05:23:34;;;;;;;28.02;7.40;;;10.60;99.90;;;;;;4995941;28;20042;-69
2022/05/15 05:26:01;;;;;;;26.92;8.02;;;10.70;99.90;;;;;;4989968;28;20378;-68
2022/05/15 05:28:27;;;;;;;32.63;8.05;;;10.70;99.90;;;;;;4992920;28;20061;-69
2022/05/15 05:30:54;;;;;;;29.85;8.25;;;10.80;99.90;;;;;;4985435;28;20043;-68
2022/05/15 05:33:20;;;;;;;30.10;7.95;;;10.80;99.90;;;;;;4984526;28;20439;-68
2022/05/15 05:35:46;;;;;;;29.45;7.82;;;10.90;99.90;;;;;;4986260;28;20057;-68
2022/05/15 05:38:11;;;;;;;30.55;7.70;;;11.00;99.90;;;;;;4988192;28;20117;-69
2022/05/15 05:40:37;;;;;;;25.58;7.15;;;11.10;99.90;;;;;;4986927;28;20061;-69
2022/05/15 05:43:03;;;;;;;31.08;7.88;;;11.20;99.90;;;;;;4990045;28;20452;-68
2022/05/15 05:45:29;;;;;;;31.02;8.73;;;11.30;99.90;;;;;;4987901;28;20133;-68
2022/05/15 05:47:55;;;;;;;31.67;8.68;;;11.40;99.90;;;;;;4988674;28;20489;-68
2022/05/15 05:50:24;;;;;;;29.92;7.53;;;11.50;99.90;;;;;;4999206;28;20042;-68
2022/05/15 05:52:50;;;;;;;21.23;6.00;;;11.60;99.90;;;;;;4988913;28;20386;-68
2022/05/15 05:55:18;;;;;;;29.98;6.82;;;11.70;99.90;;;;;;4999040;28;20373;-68
2022/05/15 05:57:44;;;;;;;24.25;6.80;;;11.90;99.90;;;;;;4994819;28;20097;-68
2022/05/15 06:00:17;;;;;;;33.55;8.00;;;11.90;99.90;;;;;;4992862;28;20038;-68
2022/05/15 06:02:43;;;;;;;31.75;8.18;;;12.00;99.90;;;;;;4989349;28;20066;-68
2022/05/15 06:05:09;;;;;;;23.55;6.93;;;12.30;99.90;;;;;;4993824;28;20039;-70
2022/05/15 06:07:34;;;;;;;28.20;6.80;;;12.10;99.90;;;;;;4991044;28;20042;-68
2022/05/15 06:10:01;;;;;;;26.27;7.15;;;12.30;99.90;;;;;;4991733;28;20046;-67
2022/05/15 06:12:27;;;;;;;28.70;7.78;;;12.20;99.90;;;;;;4992136;28;21351;-69
2022/05/15 06:14:53;;;;;;;32.97;7.57;;;12.30;99.90;;;;;;4990148;28;20412;-69
2022/05/15 06:17:24;;;;;;;33.70;7.43;;;12.40;99.90;;;;;;4988682;28;20049;-68
2022/05/15 06:19:50;;;;;;;22.08;6.75;;;12.60;99.90;;;;;;4994546;28;20054;-68
2022/05/15 06:22:16;;;;;;;32.78;8.10;;;12.60;99.90;;;;;;4988720;28;20059;-69
2022/05/15 06:24:42;;;;;;;31.45;8.77;;;12.80;99.90;;;;;;4988625;28;20354;-68
2022/05/15 06:27:10;;;;;;;32.47;8.60;;;12.90;99.90;;;;;;4986616;28;20089;-69
2022/05/15 06:29:39;;;;;;;26.65;6.82;;;13.10;99.90;;;;;;4986956;28;20051;-69
2022/05/15 06:32:04;;;;;;;;;;;12.90;99.90;;;;;;4972299;28;20074;-68
2022/05/15 06:34:30;;;;;;;29.65;6.75;;;13.40;99.90;;;;;;4986256;28;19976;-69
2022/05/15 06:36:56;;;;;;;33.17;6.93;;;13.50;99.90;;;;;;4993318;28;20042;-69
2022/05/15 06:39:21;;;;;;;23.58;7.00;;;13.70;99.90;;;;;;5006048;28;20504;-68
2022/05/15 06:41:50;;;;;;;25.38;5.65;;;13.90;99.90;;;;;;4993363;28;20045;-69
2022/05/15 06:44:19;;;;;;;;;;;13.90;99.90;;;;;;4992898;28;20049;-69
2022/05/15 06:46:46;;;;;;;26.50;6.38;;;14.10;99.90;;;;;;4991910;28;20375;-69
2022/05/15 06:49:12;;;;;;;21.80;5.70;;;14.30;99.90;;;;;;4982781;28;20050;-68
2022/05/15 06:51:38;;;;;;;25.77;5.78;;;14.30;99.90;;;;;;4976960;28;20042;-68
2022/05/15 06:54:04;;;;;;;24.33;5.68;;;14.40;99.90;;;;;;4994941;28;20046;-69
2022/05/15 06:59:13;;;;;;;24.40;6.15;;;14.60;99.90;;;;;;4995114;28;20119;-68
2022/05/15 07:01:39;;;;;;;22.05;5.97;;;14.80;99.90;;;;;;4989367;28;20137;-68
2022/05/15 07:04:05;;;;;;;30.40;6.60;;;14.90;99.90;;;;;;4994659;28;20042;-69
2022/05/15 07:06:31;;;;;;;24.65;5.20;;;15.10;99.90;;;;;;4995774;28;20552;-69
2022/05/15 07:08:57;;;;;;;31.77;6.47;;;15.10;99.90;;;;;;4996372;28;20042;-70
2022/05/15 07:11:22;;;;;;;21.50;5.93;;;15.30;99.90;;;;;;4989038;28;20089;-69
2022/05/15 07:13:48;;;;;;;27.63;6.20;;;15.40;99.90;;;;;;5010566;28;20049;-68
2022/05/15 07:16:14;;;;;;;26.15;6.30;;;15.50;99.90;;;;;;4995254;28;20128;-68
2022/05/15 07:18:41;;;;;;;28.38;6.07;;;15.60;99.90;;;;;;4998054;28;20129;-68
2022/05/15 07:21:07;;;;;;;23.67;5.50;;;15.70;99.90;;;;;;4997555;28;20046;-69
2022/05/15 07:23:33;;;;;;;23.67;6.93;;;15.80;99.90;;;;;;4987427;28;20112;-68
2022/05/15 07:25:58;;;;;;;25.45;6.38;;;15.90;99.90;;;;;;4992672;28;20522;-68
2022/05/15 07:28:25;;;;;;;24.55;6.00;;;16.00;99.90;;;;;;4999169;28;20042;-69
2022/05/15 07:30:52;;;;;;;24.23;5.63;;;16.00;99.90;;;;;;5004292;28;20412;-69
2022/05/15 07:33:22;;;;;;;21.58;5.40;;;16.20;99.90;;;;;;5004676;28;20303;-69
2022/05/15 07:35:49;;;;;;;20.80;5.78;;;16.30;99.90;;;;;;4993742;28;20125;-68
2022/05/15 07:38:15;;;;;;;19.67;5.40;;;16.40;99.90;;;;;;4982355;28;20101;-68
2022/05/15 07:40:42;;;;;;;24.35;5.82;;;16.50;99.90;;;;;;4995335;28;20412;-69
2022/05/15 07:43:10;;;;;;;21.58;5.78;;;16.60;99.90;;;;;;4995550;28;20480;-69
2022/05/15 07:45:36;;;;;;;26.23;5.85;;;16.60;99.90;;;;;;4992426;28;20046;-69
2022/05/15 07:48:03;;;;;;;23.20;6.05;;;16.80;99.90;;;;;;4986590;28;20116;-68
2022/05/15 07:50:29;;;;;;;20.35;5.07;;;16.90;99.90;;;;;;4994368;28;20444;-68
2022/05/15 07:52:56;;;;;;;23.77;5.32;;;16.80;99.90;;;;;;4997935;28;20334;-68
2022/05/15 07:55:22;;;;;;;24.70;6.13;;;16.80;99.90;;;;;;4989009;28;20034;-67
2022/05/15 07:57:48;;;;;;;25.10;6.53;;;16.90;99.90;;;;;;4972827;28;20100;-67
2022/05/15 08:00:16;;;;;;;27.25;4.88;;;17.00;99.90;;;;;;4991365;28;20059;-68
2022/05/15 08:02:43;;;;;;;19.40;4.90;;;17.10;99.90;;;;;;4982439;28;20126;-67
2022/05/15 08:08:09;;;;;;;17.90;4.75;;;17.40;99.90;;;;;;4972463;28;20054;-68
2022/05/15 08:10:44;;;;;;;22.58;5.25;;;17.50;99.90;;;;;;4976598;28;20073;-68
2022/05/15 08:13:12;;;;;;;21.15;4.80;;;17.60;99.90;;;;;;4985399;28;20050;-67
2022/05/15 08:15:38;;;;;;;21.42;4.85;;;17.70;99.90;;;;;;4985861;28;20043;-68
2022/05/15 08:23:44;;;;;;;19.55;4.88;;;17.90;99.90;;;;;;4988239;28;20050;-68
2022/05/15 08:26:11;;;;;;;23.45;5.40;;;18.00;99.40;;;;;;4984631;28;20042;-68
2022/05/15 08:28:37;;;;;;;17.30;5.35;;;18.20;99.90;;;;;;4990756;28;20050;-68
2022/05/15 08:31:03;;;;;;;15.40;4.15;;;18.40;99.30;;;;;;4989744;28;20077;-68
2022/05/15 08:33:30;;;;;;;18.92;4.50;;;18.40;99.00;;;;;;4989461;28;20069;-67
2022/05/15 08:35:56;;;;;;;17.67;4.68;;;18.50;98.50;;;;;;4989577;28;20068;-68
2022/05/15 08:38:22;;;;;;;16.05;5.15;;;18.50;98.00;;;;;;4980905;28;20389;-68
2022/05/15 08:41:00;;;;;;;18.58;4.25;;;18.60;97.40;;;;;;4982393;28;20038;-69
2022/05/15 08:43:58;;;;;;;14.02;4.22;;;18.60;97.00;;;;;;4988015;28;20042;-69
2022/05/15 08:46:38;;;;;;;18.65;4.53;;;18.80;97.20;;;;;;5010419;28;20046;-68
2022/05/15 08:49:27;;;;;;;15.20;4.03;;;18.90;96.90;;;;;;4987966;28;20065;-69
2022/05/15 08:51:59;;;;;;;19.07;4.67;;;19.00;95.80;;;;;;4990916;28;20057;-68
2022/05/15 08:54:26;;;;;;;16.60;4.10;;;19.00;95.80;;;;;;4994893;28;20512;-68
2022/05/15 08:56:53;;;;;;;17.75;4.68;;;19.10;96.40;;;;;;4990418;28;20039;-68
2022/05/15 08:59:26;;;;;;;17.88;5.50;;;19.20;95.80;;;;;;4988120;28;20038;-69
2022/05/15 09:01:54;;;;;;;18.60;4.72;;;19.30;95.50;;;;;;4990908;28;20042;-68
2022/05/15 09:04:21;;;;;;;18.35;4.60;;;19.50;95.90;;;;;;4988113;28;20045;-69
2022/05/15 09:07:35;;;;;;;18.95;4.53;;;19.70;95.90;;;;;;5001408;28;20042;-68
2022/05/15 09:10:30;;;;;;;16.90;4.50;;;19.80;94.00;;;;;;4984686;28;20141;-69
2022/05/15 09:13:30;;;;;;;14.80;4.25;;;19.80;93.00;;;;;;4977078;28;20125;-67
2022/05/15 09:16:02;;;;;;;20.00;4.70;;;20.00;93.20;;;;;;4994424;28;20085;-67
2022/05/15 09:18:29;;;;;;;18.60;4.90;;;19.90;92.90;;;;;;4986122;28;20092;-69
2022/05/15 09:21:08;;;;;;;14.80;4.10;;;20.00;92.60;;;;;;4998345;28;20054;-67
2022/05/15 09:23:37;;;;;;;15.55;4.30;;;20.00;92.20;;;;;;4984181;28;20089;-68
2022/05/15 09:26:06;;;;;;;15.68;4.18;;;20.00;91.20;;;;;;4982026;28;20043;-67
2022/05/15 09:29:00;;;;;;;17.23;4.00;;;20.00;92.20;;;;;;4995252;28;20492;-67
2022/05/15 09:31:38;;;;;;;14.75;3.75;;;20.20;91.20;;;;;;4991029;28;20045;-68
2022/05/15 09:34:11;;;;;;;14.15;4.15;;;20.20;91.50;;;;;;4991036;28;20507;-69
2022/05/15 09:36:36;;;;;;;17.65;4.63;;;20.20;90.00;;;;;;4983067;28;20502;-68
2022/05/15 09:39:14;;;;;;;15.88;4.25;;;20.30;88.90;;;;;;4990266;28;20045;-68
2022/05/15 09:44:34;;;;;;;15.80;4.07;;;20.20;91.00;;;;;;4997765;28;20477;-69
2022/05/15 09:47:18;;;;;;;17.13;4.15;;;20.40;90.80;;;;;;4987410;28;20038;-68
2022/05/15 09:49:45;;;;;;;20.48;4.40;;;20.60;90.00;;;;;;4995113;28;20185;-69
2022/05/15 09:52:30;;;;;;;14.38;3.70;;;20.70;90.10;;;;;;4992898;28;20399;-70
2022/05/15 09:55:20;;;;;;;13.13;4.22;;;20.80;87.70;;;;;;4984419;28;20038;-68
2022/05/15 09:57:58;;;;;;;18.98;4.15;;;20.90;87.90;;;;;;4989060;28;20448;-68
2022/05/15 10:00:27;;;;;;;12.82;4.03;;;20.90;87.80;;;;;;4986626;28;20062;-70
2022/05/15 10:02:56;;;;;;;15.75;4.07;;;21.00;86.00;;;;;;4986941;28;20042;-69
2022/05/15 10:05:28;;;;;;;14.60;3.78;;;20.90;86.50;;;;;;4984296;28;20465;-70
2022/05/15 10:08:21;;;;;;;14.65;4.05;;;20.90;86.90;;;;;;4986591;28;20133;-68
2022/05/15 10:10:56;;;;;;;14.18;4.10;;;21.10;86.60;;;;;;5012244;28;20488;-70
2022/05/15 10:13:44;;;;;;;17.52;4.75;;;21.30;84.90;;;;;;5000699;28;20041;-70
2022/05/15 10:16:18;;;;;;;14.45;3.92;;;21.40;83.00;;;;;;4994641;28;20045;-69
2022/05/15 10:19:04;;;;;;;11.65;3.83;;;21.50;84.80;;;;;;4999058;28;20089;-70
2022/05/15 10:21:44;;;;;;;13.38;4.07;;;21.70;81.00;;;;;;4997347;28;20109;-70
2022/05/15 10:24:15;;;;;;;14.90;3.97;;;22.00;82.70;;;;;;4994301;28;20096;-69
2022/05/15 10:26:47;;;;;;;17.77;4.63;;;22.10;82.30;;;;;;4996163;28;20105;-69
2022/05/15 10:29:38;;;;;;;12.93;3.72;;;22.00;80.40;;;;;;5007777;28;20128;-69
2022/05/15 10:32:15;;;;;;;12.45;3.90;;;22.30;77.50;;;;;;4984456;28;20053;-69
2022/05/15 10:34:41;;;;;;;16.33;4.15;;;22.50;80.00;;;;;;5005008;28;20173;-69
2022/05/15 10:37:38;;;;;;;14.43;4.57;;;22.70;79.40;;;;;;4994696;28;20082;-70
2022/05/15 10:40:26;;;;;;;14.82;4.35;;;22.90;77.50;;;;;;4999817;28;20053;-69
2022/05/15 10:43:09;;;;;;;14.70;3.93;;;23.20;78.50;;;;;;4993530;28;20092;-70
2022/05/15 10:45:58;;;;;;;13.80;3.72;;;23.30;74.80;;;;;;5002293;28;20527;-69
2022/05/15 10:48:45;;;;;;;13.80;3.65;;;23.40;73.70;;;;;;5009344;28;20365;-70
2022/05/15 10:51:34;;;;;;;13.45;3.83;;;23.30;74.30;;;;;;5008904;28;20042;-70
2022/05/15 10:57:30;;;;;;;14.95;4.00;;;23.40;74.20;;;;;;5006185;28;20486;-70
2022/05/15 11:00:05;;;;;;;16.13;3.95;;;23.40;73.40;;;;;;5016131;28;20392;-69
2022/05/15 11:03:26;;;;;;;13.52;3.30;;;23.60;72.60;;;;;;4996591;28;20559;-69
2022/05/15 11:06:20;;;;;;;12.95;3.95;;;23.80;71.50;;;;;;5011500;28;20488;-69
2022/05/15 11:09:06;;;;;;;12.25;4.40;;;24.10;72.30;;;;;;4980733;28;20358;-71
2022/05/15 11:12:08;;;;;;;12.00;4.10;;;24.40;70.70;;;;;;5009840;28;20408;-70
2022/05/15 11:14:36;;;;;;;16.70;4.10;;;24.50;68.10;;;;;;5010821;28;20039;-69
2022/05/15 11:17:21;;;;;;;13.45;4.72;;;24.50;68.70;;;;;;4993752;28;20558;-70
2022/05/15 11:19:47;;;;;;;13.38;4.25;;;24.40;67.80;;;;;;4996158;28;20046;-70
2022/05/15 11:22:19;;;;;;;12.82;4.28;;;24.40;66.40;;;;;;5008061;28;20104;-69
2022/05/15 11:24:56;;;;;;;11.30;4.07;;;24.60;66.20;;;;;;4997150;28;20050;-69
2022/05/15 11:27:22;;;;;;;13.73;4.05;;;24.40;65.60;;;;;;4993863;28;20089;-69
2022/05/15 11:29:50;;;;;;;14.52;4.07;;;24.20;66.00;;;;;;4975326;28;20051;-70
2022/05/15 11:32:34;;;;;;;13.90;3.63;;;24.30;64.60;;;;;;4974732;28;20129;-69
2022/05/15 11:35:10;;;;;;;13.27;4.10;;;24.20;65.60;;;;;;4987279;28;20248;-68
2022/05/15 11:37:38;;;;;;;17.17;4.60;;;24.10;66.40;;;;;;4975702;28;20046;-68
2022/05/15 11:40:29;;;;;;;14.32;4.25;;;24.30;66.00;;;;;;4974253;28;20045;-69
2022/05/15 11:42:55;;;;;;;12.90;3.60;;;24.40;66.20;;;;;;4986080;28;20107;-68
2022/05/15 11:45:30;;;;;;;11.05;3.55;;;24.30;64.30;;;;;;4992603;28;20034;-68
2022/05/15 11:47:58;;;;;;;11.32;3.28;;;24.30;62.80;;;;;;4996177;28;20120;-67
2022/05/15 11:50:49;;;;;;;14.25;3.38;;;24.30;63.60;;;;;;4989532;28;20100;-70
2022/05/15 11:53:37;;;;;;;14.05;3.10;;;24.30;62.50;;;;;;4991053;28;20053;-68
2022/05/15 11:56:34;;;;;;;9.13;3.30;;;24.20;63.40;;;;;;4999604;28;20088;-68
2022/05/15 11:59:24;;;;;;;10.68;3.45;;;24.20;62.50;;;;;;4994270;28;20121;-68
2022/05/15 12:01:55;;;;;;;9.73;3.17;;;24.00;63.10;;;;;;4984581;28;20069;-67
2022/05/15 12:04:36;;;;;;;10.35;3.50;;;24.10;63.60;;;;;;4987983;28;20558;-69
2022/05/15 12:07:01;;;;;;;13.75;3.42;;;24.00;61.40;;;;;;4994810;28;20347;-68
2022/05/15 12:09:49;;;;;;;11.93;3.15;;;23.60;62.40;;;;;;4957953;28;20062;-68
2022/05/15 12:12:23;;;;;;;13.10;3.45;;;23.30;63.20;;;;;;4989101;28;20042;-69
2022/05/15 12:15:09;;;;;;;11.85;3.25;;;23.30;63.10;;;;;;4993028;28;20042;-68
2022/05/15 12:17:38;;;;;;;8.80;3.00;;;23.30;62.70;;;;;;4998949;28;20509;-69
2022/05/15 12:20:19;;;;;;;8.13;2.85;;;23.50;63.70;;;;;;4998803;28;20033;-69
2022/05/15 12:22:52;;;;;;;12.10;3.55;;;23.60;62.60;;;;;;4973906;28;20039;-69
2022/05/15 12:25:22;;;;;;;9.25;2.63;;;23.80;63.70;;;;;;4973739;28;20078;-69
2022/05/15 12:30:47;;;;;;;9.68;3.30;;;23.70;61.00;;;;;;4973244;28;20460;-67
2022/05/15 12:33:14;;;;;;;11.15;3.22;;;23.80;61.80;;;;;;4976801;28;20057;-68
2022/05/15 12:35:43;;;;;;;11.13;3.75;;;24.10;61.20;;;;;;4987920;28;20079;-67
2022/05/15 12:38:12;;;;;;;9.70;3.05;;;24.10;59.90;;;;;;5004561;28;20042;-68
2022/05/15 12:40:55;;;;;;;8.52;2.75;;;24.00;59.90;;;;;;5010079;28;20049;-69
2022/05/15 12:43:42;;;;;;;14.05;3.58;;;24.10;59.60;;;;;;4992751;28;20039;-69
2022/05/15 12:46:07;;;;;;;10.43;2.75;;;24.20;62.10;;;;;;4985401;28;20039;-68
2022/05/15 12:48:38;;;;;;;11.15;3.10;;;24.50;61.80;;;;;;4982904;28;20453;-68
2022/05/15 12:51:09;;;;;;;14.80;3.47;;;24.70;60.00;;;;;;4986531;28;20034;-68
2022/05/15 12:53:46;;;;;;;9.73;2.88;;;24.60;61.40;;;;;;4985884;28;20105;-70
2022/05/15 12:56:15;;;;;;;9.45;3.35;;;24.80;60.40;;;;;;4991210;28;20121;-69
2022/05/15 12:58:42;;;;;;;10.77;3.50;;;24.70;59.40;;;;;;4989316;28;20087;-69
2022/05/15 13:01:11;;;;;;;10.45;3.25;;;24.70;59.60;;;;;;4979732;28;20035;-69
2022/05/15 13:03:41;;;;;;;9.98;3.35;;;25.10;60.40;;;;;;4985880;28;20501;-68
2022/05/15 13:06:08;;;;;;;13.23;3.83;;;25.10;60.10;;;;;;4985749;28;20060;-69
2022/05/15 13:08:51;;;;;;;10.40;3.53;;;25.30;58.90;;;;;;4980957;28;20500;-69
2022/05/15 13:11:25;;;;;;;11.32;3.13;;;25.20;59.20;;;;;;4972702;28;20516;-67
2022/05/15 13:13:54;;;;;;;9.52;2.97;;;25.40;60.80;;;;;;4995128;28;20046;-68
2022/05/15 13:16:22;;;;;;;11.48;3.35;;;25.20;59.00;;;;;;5000526;28;20041;-67
2022/05/15 13:18:50;;;;;;;10.05;3.53;;;25.40;58.60;;;;;;5011980;28;20034;-68